Alachua, FL

1:13 PM EDT on April 26, 2015 (GMT -0400)
Clover Ranch | | Change Station
CLOSE
Current Station
Personal Weather Station
Location: Alachua, FL
Elevation: 152 ft
Nearby Weather Stations

Elev 152 ft 29.79 °N, 82.51 °W | Updated 10 seconds ago

Mostly Cloudy
Mostly Cloudy
83.3 °F
Feels Like 89 °F
N
3.5
Wind Variable Wind from NW
Gusts 8.1 mph

Today
High -- | Low -- °F
--% Chance of Precip.
Yesterday
High -- | Low -- °F
Precip. -- in
6:52 AM 8:03 PM
First Quarter, 57% visible
Pressure 29.77 in
Visibility 10.0 miles
Clouds Scattered Clouds 1300 ft
Mostly Cloudy 2400 ft
Heat Index 89 °F
Dew Point 72 °F
Humidity 70%
Rainfall 0.00 in
Snow Depth Not available.
UV 3.6 out of 12
Pollen 6.00 out of 12
Air Quality Not available.
Flu Activity Local Activity
SPECI KGNV 261700Z 23008KT 200V280 10SM SCT013 BKN024 27/23 A2977 RMK AO2 T02720228 $

More Conditions Fewer Conditions

Pressure 29.77 in
Visibility 10.0 miles
Clouds Scattered Clouds 1300 ft
Mostly Cloudy 2400 ft
Heat Index 89 °F
Dew Point 72 °F
Humidity 70%
Rainfall 0.00 in
Snow Depth Not available.
UV 3.6 out of 12
Pollen 6.00 out of 12
Air Quality Not available.
Flu Activity Local Activity
SPECI KGNV 261700Z 23008KT 200V280 10SM SCT013 BKN024 27/23 A2977 RMK AO2 T02720228 $

More Conditions Fewer Conditions

The full scope of the disaster following a powerful 7.8-magnitude earthquake in Nepal may not come into view for days, but global charities are already sending emergency aid. Click to see how you can help.

10-Day Weather Forecast

Almanac

Astronomy

Apr. 26, 2015 Rise Set
Actual Time
Civil Twilight
Nautical Twilight
Astronomical Twilight
Moon
Length of Visible Light
Length of Day
Tomorrow will be .
, % of the Moon is Illuminated

Today's Extremes

State Highs State Lows

Community

WunderPhotos

Upload Photos

1,817,058 photos uploaded!

WunderBlogs® & News

Nearby

Air Quality

  Air Quality AQ Index Pollutant
Not available.

Snow Depth

Station Depth Elevation

Earthquake Activity

City Distance Mag. Time & Date
Minimum magnitude displayed is 2.5.

Coastal Water Temperatures

Place Temperature

Stations

Nearby Weather Stations

Station Location Temp. Windchill Dew Point Humidity Wind Precip. Elev Updated Type